createdAt,value
2022-10-12T00:03:24.026Z,8.30
2022-10-12T00:07:25.054Z,8.20
2022-10-12T00:11:28.515Z,8.00
2022-10-12T00:15:29.800Z,7.80
2022-10-12T00:19:30.723Z,7.70
2022-10-12T00:23:32.420Z,8.30
2022-10-12T00:27:33.446Z,8.20
2022-10-12T00:31:34.438Z,8.30
2022-10-12T00:35:35.289Z,8.30
2022-10-12T00:39:36.559Z,8.20
2022-10-12T00:43:41.187Z,8.20
2022-10-12T00:47:54.832Z,8.10
2022-10-12T00:51:59.571Z,8.00
2022-10-12T00:56:04.213Z,7.90
2022-10-12T01:00:08.999Z,7.90
2022-10-12T01:04:10.019Z,7.80
2022-10-12T01:08:10.990Z,7.70
2022-10-12T01:12:12.427Z,7.60
2022-10-12T01:16:26.365Z,7.70
2022-10-12T01:20:46.074Z,7.30
2022-10-12T01:24:53.620Z,7.40
2022-10-12T01:29:07.421Z,7.50
2022-10-12T01:33:15.247Z,7.80
2022-10-12T01:37:43.727Z,7.60
2022-10-12T01:41:48.273Z,8.10
2022-10-12T01:45:49.809Z,7.80
2022-10-12T01:49:51.425Z,7.80
2022-10-12T01:54:08.065Z,7.50
2022-10-12T01:58:21.729Z,7.50
2022-10-12T02:02:42.807Z,7.50
2022-10-12T02:06:47.669Z,7.50
2022-10-12T02:11:12.771Z,7.40
2022-10-12T02:15:16.445Z,7.40
2022-10-12T02:19:21.283Z,7.30
2022-10-12T02:23:23.968Z,7.30
2022-10-12T02:27:26.125Z,7.30
2022-10-12T02:31:33.846Z,7.30
2022-10-12T02:35:38.674Z,7.10
2022-10-12T02:39:46.639Z,6.90
2022-10-12T02:43:54.183Z,6.90
2022-10-12T02:47:57.602Z,7.50
2022-10-12T02:51:59.250Z,7.70
2022-10-12T02:56:03.804Z,7.50
2022-10-12T03:00:05.653Z,7.40
2022-10-12T03:04:06.819Z,7.40
2022-10-12T03:08:07.855Z,6.40
2022-10-12T03:12:08.882Z,6.90
2022-10-12T03:16:11.224Z,7.00
2022-10-12T03:20:12.282Z,7.20
2022-10-12T03:24:13.334Z,7.20
2022-10-12T03:28:14.316Z,7.20
2022-10-12T03:32:15.512Z,7.20
2022-10-12T03:36:16.771Z,7.30
2022-10-12T03:40:17.620Z,7.00
2022-10-12T03:44:18.590Z,7.10
2022-10-12T03:48:19.551Z,7.40
2022-10-12T03:52:20.476Z,7.60
2022-10-12T03:56:21.426Z,7.70
2022-10-12T04:00:22.260Z,7.60
2022-10-12T04:04:23.216Z,7.50
2022-10-12T04:08:26.289Z,7.30
2022-10-12T04:12:27.264Z,7.10
2022-10-12T04:16:31.031Z,7.30
2022-10-12T04:20:31.578Z,7.20
2022-10-12T04:24:32.525Z,7.10
2022-10-12T04:28:34.167Z,6.70
2022-10-12T04:32:35.328Z,6.90
2022-10-12T04:36:36.161Z,6.90
2022-10-12T04:40:37.110Z,7.10
2022-10-12T04:44:38.055Z,7.10
2022-10-12T04:48:39.102Z,7.10
2022-10-12T04:52:40.154Z,7.00
2022-10-12T04:56:45.417Z,6.60
2022-10-12T05:00:44.072Z,6.70
2022-10-12T05:04:44.906Z,6.80
2022-10-12T05:08:45.866Z,7.20
2022-10-12T05:12:46.855Z,7.30
2022-10-12T05:16:47.812Z,7.30
2022-10-12T05:20:50.464Z,7.10
2022-10-12T05:24:53.932Z,7.20
2022-10-12T05:28:54.373Z,7.00
2022-10-12T05:32:55.594Z,7.10
2022-10-12T05:36:57.587Z,7.00
2022-10-12T05:41:00.698Z,7.00
2022-10-12T05:45:01.713Z,6.80
2022-10-12T05:49:02.768Z,6.90
2022-10-12T05:53:03.660Z,7.00
2022-10-12T05:57:04.707Z,6.90
2022-10-12T06:01:08.017Z,6.90
2022-10-12T06:05:08.895Z,7.10
2022-10-12T06:09:11.561Z,7.20
2022-10-12T06:13:13.135Z,7.30
2022-10-12T06:17:13.967Z,7.50
2022-10-12T06:21:32.560Z,7.70
2022-10-12T06:25:17.951Z,8.00
2022-10-12T06:29:19.015Z,8.20
2022-10-12T06:33:20.048Z,8.60
2022-10-12T06:37:47.928Z,8.90
2022-10-12T06:41:25.068Z,9.00
2022-10-12T06:45:26.099Z,9.70
2022-10-12T06:49:27.086Z,10.20
2022-10-12T06:53:29.924Z,10.70
2022-10-12T06:57:31.600Z,11.20
2022-10-12T07:01:32.563Z,11.60
2022-10-12T07:05:33.690Z,11.90
2022-10-12T07:09:35.756Z,11.90
2022-10-12T07:13:37.049Z,12.30
2022-10-12T07:17:38.608Z,12.70
2022-10-12T07:21:39.756Z,13.10
2022-10-12T07:25:42.994Z,13.50
2022-10-12T07:29:44.065Z,13.40
2022-10-12T07:33:45.042Z,13.10
2022-10-12T07:37:48.071Z,13.00
2022-10-12T07:41:49.780Z,13.20
2022-10-12T07:45:50.643Z,13.50
2022-10-12T07:49:51.596Z,13.40
2022-10-12T07:53:52.510Z,14.20
2022-10-12T07:57:53.440Z,14.30
2022-10-12T08:01:54.606Z,14.80
2022-10-12T08:05:55.727Z,14.80
2022-10-12T08:09:56.702Z,14.80
2022-10-12T08:13:57.662Z,15.20
2022-10-12T08:17:58.646Z,13.70
2022-10-12T08:21:59.711Z,12.50
2022-10-12T08:26:01.235Z,13.70
2022-10-12T08:30:02.391Z,14.90
2022-10-12T08:34:04.067Z,15.20
2022-10-12T08:38:06.088Z,16.00
2022-10-12T08:42:27.634Z,16.30
2022-10-12T08:46:29.490Z,16.60
2022-10-12T08:50:36.959Z,16.40
2022-10-12T08:54:44.614Z,17.00
2022-10-12T08:58:47.274Z,16.60
2022-10-12T09:03:10.136Z,16.80
2022-10-12T09:07:33.243Z,17.20
2022-10-12T09:11:56.381Z,15.60
2022-10-12T09:16:03.974Z,16.80
2022-10-12T09:20:17.383Z,16.80
2022-10-12T09:24:21.258Z,16.70
2022-10-12T09:28:29.180Z,15.80
2022-10-12T09:32:39.828Z,16.90
2022-10-12T09:36:41.620Z,16.40
2022-10-12T09:40:44.490Z,15.90
2022-10-12T09:45:18.380Z,17.20
2022-10-12T09:49:19.743Z,16.70
2022-10-12T09:53:31.202Z,17.30
2022-10-12T09:57:35.862Z,17.10
2022-10-12T10:01:38.179Z,17.70
2022-10-12T10:05:39.156Z,18.10
2022-10-12T10:09:40.173Z,17.10
2022-10-12T10:13:45.063Z,17.60
2022-10-12T10:17:49.461Z,17.40
2022-10-12T10:21:50.783Z,18.30
2022-10-12T10:26:04.600Z,18.60
2022-10-12T10:30:40.858Z,18.70
2022-10-12T10:34:25.607Z,18.00
2022-10-12T10:38:28.401Z,17.30
2022-10-12T10:42:31.959Z,18.60
2022-10-12T10:46:35.661Z,16.80
2022-10-12T10:50:40.179Z,17.90
2022-10-12T10:54:41.598Z,18.80
2022-10-12T10:58:49.285Z,19.60
2022-10-12T11:02:59.799Z,19.50
2022-10-12T11:07:04.634Z,19.50
2022-10-12T11:11:14.882Z,20.00
2022-10-12T11:15:25.602Z,19.80
2022-10-12T11:19:45.687Z,19.70
2022-10-12T11:23:53.178Z,19.80
2022-10-12T11:27:54.439Z,20.00
2022-10-12T11:32:07.146Z,20.10
2022-10-12T11:36:14.662Z,20.90
2022-10-12T11:40:23.524Z,20.90
2022-10-12T11:44:34.917Z,20.60
2022-10-12T11:49:03.337Z,21.20
2022-10-12T11:53:22.227Z,20.40
2022-10-12T11:57:29.493Z,20.80
2022-10-12T12:01:51.095Z,20.00
2022-10-12T12:05:52.086Z,19.40
2022-10-12T12:09:53.584Z,20.90
2022-10-12T12:14:27.272Z,21.80
2022-10-12T12:18:32.323Z,19.70
2022-10-12T12:22:49.584Z,21.20
2022-10-12T12:26:50.682Z,21.50
2022-10-12T12:31:00.526Z,21.30
2022-10-12T12:35:01.756Z,21.80
2022-10-12T12:39:05.299Z,20.30
2022-10-12T12:43:30.482Z,22.10
2022-10-12T12:47:46.686Z,22.10
2022-10-12T12:51:43.496Z,22.10
2022-10-12T12:55:57.467Z,21.80
2022-10-12T13:00:08.501Z,19.50
2022-10-12T13:04:19.312Z,21.40
2022-10-12T13:08:58.722Z,20.90
2022-10-12T13:13:04.043Z,18.70
2022-10-12T13:21:24.352Z,19.50
2022-10-12T13:25:34.855Z,20.60
2022-10-12T13:29:45.033Z,19.90
2022-10-12T13:33:55.520Z,21.70
2022-10-12T13:38:14.115Z,21.70
2022-10-12T13:42:21.765Z,21.10
2022-10-12T13:46:43.190Z,21.70
2022-10-12T13:51:01.861Z,20.90
2022-10-12T13:55:06.783Z,20.00
2022-10-12T13:59:20.326Z,21.60
2022-10-12T14:03:26.850Z,21.60
2022-10-12T14:07:34.806Z,21.10
2022-10-12T14:11:36.767Z,20.20
2022-10-12T14:15:39.705Z,19.30
2022-10-12T14:19:47.402Z,19.80
2022-10-12T14:23:58.131Z,20.00
2022-10-12T14:28:05.894Z,20.60
2022-10-12T14:32:13.642Z,20.70
2022-10-12T14:36:24.317Z,20.40
2022-10-12T14:40:32.248Z,20.00
2022-10-12T14:44:42.027Z,19.00
2022-10-12T14:48:43.039Z,19.10
2022-10-12T14:52:47.538Z,18.50
2022-10-12T14:56:48.687Z,19.20
2022-10-12T15:00:49.918Z,19.00
2022-10-12T15:04:51.048Z,19.80
2022-10-12T15:08:52.138Z,19.90
2022-10-12T15:17:02.728Z,20.80
2022-10-12T15:21:04.062Z,21.10
2022-10-12T15:25:25.222Z,21.10
2022-10-12T15:29:26.270Z,21.00
2022-10-12T15:33:28.790Z,21.20
2022-10-12T15:37:31.401Z,20.20
2022-10-12T15:41:32.660Z,19.10
2022-10-12T15:45:35.681Z,20.10
2022-10-12T15:49:37.109Z,19.10
2022-10-12T15:53:37.988Z,18.70
2022-10-12T15:57:38.907Z,19.30
2022-10-12T16:01:41.827Z,18.80
2022-10-12T16:05:42.680Z,18.00
2022-10-12T16:09:43.653Z,18.40
2022-10-12T16:13:51.286Z,18.90
2022-10-12T16:17:50.457Z,19.10
2022-10-12T16:21:51.394Z,19.10
2022-10-12T16:25:53.125Z,19.30
2022-10-12T16:29:54.952Z,18.30
2022-10-12T16:33:56.823Z,18.80
2022-10-12T16:37:58.372Z,18.90
2022-10-12T16:41:59.384Z,18.80
2022-10-12T16:46:00.386Z,18.90
2022-10-12T16:50:01.303Z,18.70
2022-10-12T16:54:02.194Z,18.60
2022-10-12T16:58:03.318Z,18.30
2022-10-12T17:02:04.852Z,18.00
2022-10-12T17:06:06.426Z,18.30
2022-10-12T17:10:08.394Z,17.70
2022-10-12T17:14:13.319Z,17.70
2022-10-12T17:18:14.264Z,17.70
2022-10-12T17:22:15.395Z,17.50
2022-10-12T17:26:16.623Z,16.80
2022-10-12T17:30:17.639Z,16.80
2022-10-12T17:34:27.978Z,17.00
2022-10-12T17:38:29.175Z,16.70
2022-10-12T17:42:31.121Z,16.70
2022-10-12T17:46:32.548Z,16.60
2022-10-12T17:50:33.862Z,16.40
2022-10-12T17:54:35.804Z,16.30
2022-10-12T17:58:38.190Z,15.80
2022-10-12T18:02:39.273Z,16.00
2022-10-12T18:06:40.640Z,15.00
2022-10-12T18:10:42.017Z,15.70
2022-10-12T18:14:43.121Z,16.00
2022-10-12T18:18:44.357Z,15.90
2022-10-12T18:22:45.223Z,15.50
2022-10-12T18:26:47.052Z,15.10
2022-10-12T18:30:49.850Z,15.40
2022-10-12T18:34:53.010Z,15.20
2022-10-12T18:38:54.578Z,15.40
2022-10-12T18:42:55.599Z,15.30
2022-10-12T18:46:56.769Z,15.00
2022-10-12T18:51:12.802Z,14.80
2022-10-12T18:55:13.889Z,15.00
2022-10-12T18:59:16.948Z,14.40
2022-10-12T19:03:18.103Z,14.60
2022-10-12T19:07:19.141Z,14.10
2022-10-12T19:11:21.853Z,14.40
2022-10-12T19:15:23.654Z,13.90
2022-10-12T19:19:25.669Z,14.10
2022-10-12T19:23:26.749Z,12.80
2022-10-12T19:27:27.880Z,13.10
2022-10-12T19:31:35.008Z,14.10
2022-10-12T19:35:37.744Z,14.20
2022-10-12T19:39:40.682Z,14.00
2022-10-12T19:43:45.815Z,13.60
2022-10-12T19:47:47.549Z,14.00
2022-10-12T19:51:48.551Z,13.70
2022-10-12T19:55:50.491Z,13.50
2022-10-12T19:59:51.579Z,13.20
2022-10-12T20:03:53.368Z,13.60
2022-10-12T20:07:54.441Z,13.60
2022-10-12T20:11:55.398Z,13.40
2022-10-12T20:15:57.050Z,13.20
2022-10-12T20:19:59.153Z,13.60
2022-10-12T20:24:00.092Z,13.40
2022-10-12T20:28:02.299Z,13.70
2022-10-12T20:32:03.494Z,13.60
2022-10-12T20:36:13.348Z,13.70
2022-10-12T20:40:14.368Z,13.50
2022-10-12T20:44:15.377Z,12.80
2022-10-12T20:48:16.418Z,13.10
2022-10-12T20:52:17.753Z,13.00
2022-10-12T20:56:19.577Z,13.20
2022-10-12T21:00:20.744Z,13.40
2022-10-12T21:04:21.952Z,13.30
2022-10-12T21:08:23.040Z,12.50
2022-10-12T21:12:24.470Z,12.70
2022-10-12T21:16:26.586Z,12.60
2022-10-12T21:20:27.520Z,13.00
2022-10-12T21:24:28.709Z,12.80
2022-10-12T21:28:29.655Z,12.70
2022-10-12T21:32:31.066Z,12.50
2022-10-12T21:36:35.507Z,12.40
2022-10-12T21:40:36.329Z,12.50
2022-10-12T21:44:37.186Z,12.30
2022-10-12T21:48:38.333Z,12.10
2022-10-12T21:52:39.166Z,11.10
2022-10-12T21:56:40.047Z,11.70
2022-10-12T22:00:41.086Z,12.00
2022-10-12T22:04:42.130Z,12.00
2022-10-12T22:08:44.035Z,11.70
2022-10-12T22:12:45.076Z,11.80
2022-10-12T22:16:46.283Z,11.70
2022-10-12T22:20:47.234Z,11.60
2022-10-12T22:24:48.193Z,11.60
2022-10-12T22:28:49.439Z,11.30
2022-10-12T22:32:50.449Z,11.80
2022-10-12T22:36:51.339Z,11.70
2022-10-12T22:41:00.324Z,11.50
2022-10-12T22:45:01.166Z,10.90
2022-10-12T22:49:02.744Z,11.10
2022-10-12T22:53:03.624Z,11.40
2022-10-12T22:57:04.779Z,11.40
2022-10-12T23:01:14.729Z,10.60
2022-10-12T23:05:15.884Z,11.10
2022-10-12T23:09:16.841Z,11.10
2022-10-12T23:13:17.684Z,11.00
2022-10-12T23:17:18.628Z,10.40
2022-10-12T23:21:19.564Z,10.80
2022-10-12T23:25:20.471Z,10.00
2022-10-12T23:29:21.547Z,10.50
2022-10-12T23:33:22.525Z,10.70
2022-10-12T23:37:23.366Z,11.00
2022-10-12T23:41:24.215Z,10.50
2022-10-12T23:45:25.156Z,10.00
2022-10-12T23:49:26.211Z,9.90
2022-10-12T23:53:27.926Z,10.20
2022-10-12T23:57:46.090Z,10.10
